CheckWX is a tool to help pilots better visualize weather data.  It is not intended as a substitute for an official pre-flight weather briefing.

07:00:30 UTC

VTPM TAF
Mae Sot Airport
Thailand
TAF VTPM 170500Z 1706/1806 24005KT 9999 BKN025 TEMPO 1708/1714 VRB15G30KT 5000 TSRA FEW020CB BKN025 OVC080

Jun-17@
06:00 UTC

Jun-17 @ 06:00 UTC

Jun-18@
06:00 UTC

Jun-18 @ 06:00 UTC

TAF VTPM 170500Z 1706/1806 24005KT 9999 BKN025
Wind
  • 240° at 5 KTS
Cloud Levels
  • Broken at 2,500' AGL

Jun-17@
08:00 UTC

Jun-17 @ 08:00 UTC

Jun-17@
14:00 UTC

Jun-17 @ 14:00 UTC

TEMPO 1708/1714 VRB15G30KT 5000 TSRA FEW020CB BKN025 OVC080

Temporary

Temporary Changes expected for less than half the time period

Wind
  • Variable at 15 KTS
  • {Gusting to 30 KTS
Conditions
Thunderstorm, Rain
Cloud Levels
  • Few at 2,000' AGL
  • Broken at 2,500' AGL
  • Overcast at 8,000' AGL